ENTO/TRF METAR and TAF weather

Enter ICAO airport designator
Station Type Date Time Source
ENTO METAR 2022/08/12 15:20 UTC NOAA

ENTO 121520Z 18012KT CAVOK 24/10 Q1021 NOSIG


Station Type Date Time Source
ENTO Decoded METAR 2022/08/12 15:20 UTC NOAA

Torp, Norway (ENTO) 59-12N 010-16E 88M
Aug 12, 2022 - 11:20 AM EDT / 2022.08.12 1520 UTC
Wind: from the S (180 degrees) at 14 MPH (12 KT):0
Visibility: greater than 7 mile(s):0
Temperature: 75 F (24 C)
Dew Point: 50 F (10 C)
Relative Humidity: 41%
Pressure (altimeter): 30.15 in. Hg (1021 hPa)
ob: ENTO 121520Z 18012KT CAVOK 24/10 Q1021 NOSIG
cycle: 15

Station Type Date Time Source
ENTO TAF 2022/08/12 12:54 UTC NOAA

TAF ENTO 1212/1312 18012KT CAVOK
BECMG 1220/1222 VRB05KT PROB40 1222/1307 0500 FG VV001

Example: see airport list